createdAt,value
2023-02-15T00:00:25.493Z,102735.97
2023-02-15T00:02:53.918Z,102742.63
2023-02-15T00:05:22.371Z,102734.19
2023-02-15T00:07:50.771Z,102738.91
2023-02-15T00:10:19.319Z,102748.59
2023-02-15T00:12:47.717Z,102736.59
2023-02-15T00:15:16.275Z,102744.63
2023-02-15T00:17:44.732Z,102734.47
2023-02-15T00:20:13.148Z,102733.78
2023-02-15T00:22:41.560Z,102730.66
2023-02-15T00:25:10.048Z,102729.59
2023-02-15T00:27:38.425Z,102729.63
2023-02-15T00:30:07.530Z,102725.69
2023-02-15T00:32:35.956Z,102707.38
2023-02-15T00:35:04.747Z,102708.78
2023-02-15T00:37:33.349Z,102721.28
2023-02-15T00:40:02.208Z,102720.84
2023-02-15T00:42:30.677Z,102715.81
2023-02-15T00:44:59.215Z,102713.88
2023-02-15T00:47:27.672Z,102708.34
2023-02-15T00:49:56.068Z,102701.56
2023-02-15T00:52:24.513Z,102706.22
2023-02-15T00:54:52.906Z,102693.38
2023-02-15T00:57:21.376Z,102690.28
2023-02-15T00:59:50.626Z,102683.41
2023-02-15T01:02:18.965Z,102688.34
2023-02-15T01:04:47.534Z,102694.31
2023-02-15T01:07:15.954Z,102691.97
2023-02-15T01:09:44.462Z,102682.88
2023-02-15T01:12:13.006Z,102687.97
2023-02-15T01:14:41.559Z,102684.25
2023-02-15T01:17:09.991Z,102679.72
2023-02-15T01:19:38.403Z,102680.81
2023-02-15T01:22:06.880Z,102675.16
2023-02-15T01:24:35.380Z,102667.56
2023-02-15T01:27:03.957Z,102659.22
2023-02-15T01:29:32.534Z,102657.50
2023-02-15T01:32:01.074Z,102658.59
2023-02-15T01:34:32.819Z,102659.34
2023-02-15T01:37:01.358Z,102657.50
2023-02-15T01:39:29.858Z,102653.88
2023-02-15T01:41:58.281Z,102666.69
2023-02-15T01:44:50.569Z,102651.50
2023-02-15T01:50:06.006Z,102654.41
2023-02-15T01:52:38.035Z,102647.72
2023-02-15T01:55:09.931Z,102650.16
2023-02-15T01:57:38.421Z,102652.69
2023-02-15T02:00:08.350Z,102655.38
2023-02-15T02:02:36.916Z,102638.09
2023-02-15T02:05:07.779Z,102639.91
2023-02-15T02:07:41.084Z,102637.25
2023-02-15T02:10:14.668Z,102629.81
2023-02-15T02:12:46.135Z,102633.41
2023-02-15T02:15:15.113Z,102636.41
2023-02-15T02:18:23.106Z,102625.38
2023-02-15T02:21:31.248Z,102626.41
2023-02-15T02:24:07.233Z,102628.06
2023-02-15T02:27:07.555Z,102631.75
2023-02-15T02:29:49.747Z,102620.94
2023-02-15T02:32:27.217Z,102620.78
2023-02-15T02:35:14.056Z,102622.44
2023-02-15T02:38:11.991Z,102608.66
2023-02-15T02:40:56.679Z,102608.13
2023-02-15T02:43:38.215Z,102611.94
2023-02-15T02:46:10.165Z,102594.25
2023-02-15T02:48:39.825Z,102607.69
2023-02-15T02:51:08.322Z,102592.06
2023-02-15T02:53:36.840Z,102603.13
2023-02-15T02:56:22.358Z,102602.63
2023-02-15T02:59:18.001Z,102601.06
2023-02-15T03:01:58.620Z,102594.78
2023-02-15T03:04:32.965Z,102595.28
2023-02-15T03:07:12.584Z,102593.94
2023-02-15T03:09:48.863Z,102586.97
2023-02-15T03:12:27.166Z,102588.16
2023-02-15T03:15:04.077Z,102584.31
2023-02-15T03:17:34.696Z,102580.19
2023-02-15T03:20:10.225Z,102578.56
2023-02-15T03:22:49.888Z,102573.09
2023-02-15T03:25:23.681Z,102575.41
2023-02-15T03:28:07.840Z,102572.63
2023-02-15T03:30:38.726Z,102572.63
2023-02-15T03:33:08.425Z,102568.44
2023-02-15T03:36:01.531Z,102568.97
2023-02-15T03:39:00.703Z,102568.44
2023-02-15T03:41:35.779Z,102559.00
2023-02-15T03:44:12.860Z,102560.72
2023-02-15T03:46:47.698Z,102555.97
2023-02-15T03:49:28.811Z,102554.09
2023-02-15T03:51:59.546Z,102560.63
2023-02-15T03:54:43.706Z,102553.41
2023-02-15T03:57:37.953Z,102555.50
2023-02-15T04:00:45.442Z,102545.34
2023-02-15T04:03:23.443Z,102550.25
2023-02-15T04:05:52.016Z,102552.41
2023-02-15T04:08:20.519Z,102558.19
2023-02-15T04:10:55.779Z,102541.13
2023-02-15T04:13:32.958Z,102546.66
2023-02-15T04:16:04.520Z,102550.38
2023-02-15T04:18:59.095Z,102553.03
2023-02-15T04:21:48.362Z,102551.53
2023-02-15T04:24:36.144Z,102555.25
2023-02-15T04:27:05.801Z,102553.81
2023-02-15T04:29:34.451Z,102555.94
2023-02-15T04:32:03.466Z,102549.78
2023-02-15T04:34:31.974Z,102559.22
2023-02-15T04:37:00.442Z,102556.78
2023-02-15T04:39:28.883Z,102559.63
2023-02-15T04:41:57.274Z,102548.59
2023-02-15T04:44:25.727Z,102552.56
2023-02-15T04:46:54.346Z,102551.16
2023-02-15T04:49:22.910Z,102551.56
2023-02-15T04:51:51.331Z,102547.81
2023-02-15T04:54:19.807Z,102541.81
2023-02-15T04:56:48.276Z,102534.78
2023-02-15T04:59:16.707Z,102531.53
2023-02-15T05:01:45.116Z,102526.59
2023-02-15T05:04:14.011Z,102526.22
2023-02-15T05:06:42.492Z,102527.38
2023-02-15T05:09:12.495Z,102529.16
2023-02-15T05:11:41.134Z,102521.25
2023-02-15T05:14:09.680Z,102521.44
2023-02-15T05:16:38.593Z,102522.78
2023-02-15T05:19:07.324Z,102524.03
2023-02-15T05:21:35.773Z,102523.19
2023-02-15T05:24:24.459Z,102521.63
2023-02-15T05:27:11.713Z,102518.78
2023-02-15T05:29:40.295Z,102517.94
2023-02-15T05:32:08.848Z,102514.25
2023-02-15T05:34:37.381Z,102514.25
2023-02-15T05:37:05.925Z,102526.97
2023-02-15T05:39:34.515Z,102520.59
2023-02-15T05:42:03.446Z,102518.50
2023-02-15T05:44:32.004Z,102510.59
2023-02-15T05:47:00.482Z,102509.19
2023-02-15T05:49:28.857Z,102508.34
2023-02-15T05:51:57.334Z,102516.91
2023-02-15T05:54:25.776Z,102517.47
2023-02-15T05:56:54.243Z,102516.88
2023-02-15T05:59:22.756Z,102512.44
2023-02-15T06:01:51.181Z,102517.47
2023-02-15T06:04:19.667Z,102524.31
2023-02-15T06:06:49.171Z,102523.94
2023-02-15T06:09:19.284Z,102528.03
2023-02-15T06:11:47.813Z,102522.00
2023-02-15T06:14:16.288Z,102522.59
2023-02-15T06:16:45.053Z,102518.78
2023-02-15T06:19:13.492Z,102522.38
2023-02-15T06:21:42.106Z,102531.16
2023-02-15T06:24:10.937Z,102527.25
2023-02-15T06:26:39.368Z,102533.09
2023-02-15T06:29:08.058Z,102524.81
2023-02-15T06:31:36.629Z,102520.41
2023-02-15T06:34:05.185Z,102526.13
2023-02-15T06:36:33.778Z,102520.88
2023-02-15T06:39:03.773Z,102522.69
2023-02-15T06:41:32.318Z,102521.63
2023-02-15T06:44:00.986Z,102529.63
2023-02-15T06:46:29.696Z,102528.88
2023-02-15T06:48:58.142Z,102515.66
2023-02-15T06:51:26.737Z,102513.44
2023-02-15T06:53:55.192Z,102514.13
2023-02-15T06:56:23.631Z,102519.16
2023-02-15T06:58:53.523Z,102513.34
2023-02-15T07:01:22.007Z,102505.03
2023-02-15T07:03:50.562Z,102506.31
2023-02-15T07:06:18.945Z,102501.75
2023-02-15T07:08:47.497Z,102500.94
2023-02-15T07:11:34.749Z,102498.59
2023-02-15T07:14:03.179Z,102499.19
2023-02-15T07:16:31.659Z,102494.03
2023-02-15T07:19:00.207Z,102495.66
2023-02-15T07:21:28.643Z,102493.84
2023-02-15T07:23:58.631Z,102495.47
2023-02-15T07:26:27.645Z,102499.00
2023-02-15T07:28:56.050Z,102495.75
2023-02-15T07:31:24.452Z,102491.56
2023-02-15T07:33:52.849Z,102485.34
2023-02-15T07:36:21.455Z,102488.34
2023-02-15T07:38:49.903Z,102490.03
2023-02-15T07:41:18.672Z,102487.47
2023-02-15T07:43:47.141Z,102479.00
2023-02-15T07:46:17.778Z,102481.28
2023-02-15T07:48:46.347Z,102489.75
2023-02-15T07:51:15.656Z,102485.59
2023-02-15T07:53:44.175Z,102484.13
2023-02-15T07:56:14.600Z,102479.78
2023-02-15T07:58:52.182Z,102478.78
2023-02-15T08:01:22.190Z,102476.63
2023-02-15T08:03:51.315Z,102479.00
2023-02-15T08:06:21.309Z,102475.84
2023-02-15T08:08:49.817Z,102482.59
2023-02-15T08:11:26.817Z,102474.63
2023-02-15T08:14:04.654Z,102482.25
2023-02-15T08:16:41.753Z,102484.97
2023-02-15T08:19:15.279Z,102474.22
2023-02-15T08:21:49.950Z,102482.78
2023-02-15T08:24:21.811Z,102480.41
2023-02-15T08:26:51.120Z,102485.44
2023-02-15T08:29:23.397Z,102475.63
2023-02-15T08:31:59.750Z,102479.94
2023-02-15T08:34:29.910Z,102478.66
2023-02-15T08:36:58.394Z,102489.78
2023-02-15T08:39:27.030Z,102476.63
2023-02-15T08:41:55.741Z,102479.63
2023-02-15T08:44:24.418Z,102474.50
2023-02-15T08:46:52.850Z,102475.81
2023-02-15T08:49:22.466Z,102476.00
2023-02-15T08:51:51.267Z,102468.84
2023-02-15T08:54:22.709Z,102462.22
2023-02-15T08:56:51.147Z,102465.72
2023-02-15T08:59:23.064Z,102462.03
2023-02-15T09:01:52.884Z,102465.50
2023-02-15T09:04:22.648Z,102467.41
2023-02-15T09:06:52.114Z,102465.72
2023-02-15T09:09:21.657Z,102465.66
2023-02-15T09:11:56.739Z,102465.84
2023-02-15T09:14:28.009Z,102457.97
2023-02-15T09:16:57.027Z,102452.16
2023-02-15T09:19:26.053Z,102457.97
2023-02-15T09:21:55.094Z,102454.63
2023-02-15T09:24:23.568Z,102450.31
2023-02-15T09:26:52.044Z,102457.09
2023-02-15T09:29:20.808Z,102445.66
2023-02-15T09:31:51.376Z,102442.44
2023-02-15T09:34:22.230Z,102444.06
2023-02-15T09:36:52.013Z,102441.38
2023-02-15T09:39:25.707Z,102436.75
2023-02-15T09:42:17.363Z,102436.06
2023-02-15T09:45:13.095Z,102436.28
2023-02-15T09:48:00.553Z,102441.28
2023-02-15T09:50:57.025Z,102453.94
2023-02-15T09:53:58.181Z,102460.50
2023-02-15T09:56:38.354Z,102450.75
2023-02-15T09:59:42.180Z,102450.38
2023-02-15T10:02:17.136Z,102459.25
2023-02-15T10:05:01.434Z,102452.72
2023-02-15T10:08:11.250Z,102454.63
2023-02-15T10:10:46.600Z,102460.97
2023-02-15T10:13:54.061Z,102455.47
2023-02-15T10:16:48.762Z,102463.81
2023-02-15T10:19:39.758Z,102460.00
2023-02-15T10:22:44.248Z,102461.50
2023-02-15T10:25:15.650Z,102467.28
2023-02-15T10:27:50.100Z,102475.66
2023-02-15T10:30:38.503Z,102471.69
2023-02-15T10:33:24.584Z,102478.72
2023-02-15T10:36:11.689Z,102478.59
2023-02-15T10:39:08.637Z,102472.13
2023-02-15T10:42:06.757Z,102460.16
2023-02-15T10:44:53.559Z,102457.88
2023-02-15T10:47:56.796Z,102461.09
2023-02-15T10:50:46.954Z,102443.66
2023-02-15T10:53:25.098Z,102452.16
2023-02-15T10:56:08.141Z,102438.97
2023-02-15T10:59:01.491Z,102447.91
2023-02-15T11:01:48.207Z,102448.22
2023-02-15T11:04:38.399Z,102455.84
2023-02-15T11:07:29.613Z,102448.34
2023-02-15T11:10:06.488Z,102438.13
2023-02-15T11:12:35.168Z,102442.34
2023-02-15T11:15:19.492Z,102442.78
2023-02-15T11:17:56.290Z,102447.00
2023-02-15T11:20:37.912Z,102444.03
2023-02-15T11:23:17.062Z,102442.56
2023-02-15T11:26:01.356Z,102436.00
2023-02-15T11:28:39.266Z,102434.69
2023-02-15T11:31:32.634Z,102433.13
2023-02-15T11:34:07.232Z,102424.72
2023-02-15T11:36:41.239Z,102418.44
2023-02-15T11:39:16.941Z,102415.66
2023-02-15T11:41:52.134Z,102416.31
2023-02-15T11:44:27.231Z,102404.13
2023-02-15T11:46:55.702Z,102405.78
2023-02-15T11:49:34.870Z,102403.72
2023-02-15T11:52:07.415Z,102407.56
2023-02-15T11:54:40.646Z,102396.56
2023-02-15T11:57:38.854Z,102395.09
2023-02-15T12:00:21.080Z,102388.81
2023-02-15T12:02:54.396Z,102372.84
2023-02-15T12:05:25.883Z,102374.78
2023-02-15T12:08:04.995Z,102384.09
2023-02-15T12:10:41.706Z,102390.59
2023-02-15T12:13:14.812Z,102379.22
2023-02-15T12:15:47.448Z,102366.41
2023-02-15T12:18:34.425Z,102383.66
2023-02-15T12:21:07.945Z,102372.97
2023-02-15T12:24:01.734Z,102365.41
2023-02-15T12:26:33.195Z,102367.31
2023-02-15T12:29:08.353Z,102364.28
2023-02-15T12:31:46.555Z,102357.25
2023-02-15T12:34:23.653Z,102367.25
2023-02-15T12:37:03.731Z,102369.81
2023-02-15T12:39:33.019Z,102350.75
2023-02-15T12:42:15.090Z,102355.38
2023-02-15T12:44:55.827Z,102365.88
2023-02-15T12:47:28.923Z,102358.25
2023-02-15T12:50:20.315Z,102353.59
2023-02-15T12:52:51.195Z,102343.06
2023-02-15T12:55:28.224Z,102337.38
2023-02-15T12:58:27.398Z,102330.97
2023-02-15T13:01:12.966Z,102346.13
2023-02-15T13:04:06.550Z,102341.78
2023-02-15T13:06:37.520Z,102340.22
2023-02-15T13:09:39.550Z,102334.63
2023-02-15T13:12:24.514Z,102332.91
2023-02-15T13:14:55.889Z,102326.09
2023-02-15T13:17:44.873Z,102320.84
2023-02-15T13:20:24.846Z,102311.00
2023-02-15T13:22:58.428Z,102323.53
2023-02-15T13:25:31.731Z,102310.84
2023-02-15T13:28:03.606Z,102315.91
2023-02-15T13:30:39.078Z,102324.56
2023-02-15T13:33:18.552Z,102309.47
2023-02-15T13:36:00.016Z,102309.16
2023-02-15T13:39:02.225Z,102308.97
2023-02-15T13:41:36.644Z,102308.97
2023-02-15T13:44:48.637Z,102304.59
2023-02-15T13:47:48.013Z,102305.25
2023-02-15T13:50:23.288Z,102312.00
2023-02-15T13:53:17.156Z,102297.13
2023-02-15T13:55:45.743Z,102291.88
2023-02-15T13:58:31.160Z,102298.50
2023-02-15T14:01:29.256Z,102292.38
2023-02-15T14:04:10.215Z,102292.03
2023-02-15T14:06:53.749Z,102286.28
2023-02-15T14:09:44.618Z,102293.72
2023-02-15T14:12:28.760Z,102298.13
2023-02-15T14:15:33.107Z,102299.16
2023-02-15T14:18:28.193Z,102301.72
2023-02-15T14:21:18.338Z,102309.47
2023-02-15T14:24:11.961Z,102308.13
2023-02-15T14:26:46.049Z,102313.06
2023-02-15T14:29:55.727Z,102310.53
2023-02-15T14:32:47.641Z,102318.97
2023-02-15T14:35:21.062Z,102309.31
2023-02-15T14:38:04.690Z,102318.81
2023-02-15T14:41:02.938Z,102313.38
2023-02-15T14:43:50.926Z,102320.75
2023-02-15T14:46:35.492Z,102321.91
2023-02-15T14:49:16.771Z,102313.41
2023-02-15T14:51:46.583Z,102312.97
2023-02-15T14:54:18.261Z,102316.88
2023-02-15T14:57:07.377Z,102311.25
2023-02-15T14:59:53.295Z,102318.56
2023-02-15T15:02:49.286Z,102306.44
2023-02-15T15:05:30.692Z,102302.72
2023-02-15T15:08:02.314Z,102297.97
2023-02-15T15:10:43.386Z,102304.38
2023-02-15T15:13:30.723Z,102301.84
2023-02-15T15:16:27.085Z,102307.03
2023-02-15T15:18:56.312Z,102308.88
2023-02-15T15:21:49.718Z,102313.44
2023-02-15T15:24:39.922Z,102304.50
2023-02-15T15:27:44.042Z,102295.22
2023-02-15T15:30:15.496Z,102293.84
2023-02-15T15:33:14.838Z,102299.59
2023-02-15T15:35:55.302Z,102297.88
2023-02-15T15:38:41.941Z,102304.31
2023-02-15T15:41:25.834Z,102294.66
2023-02-15T15:44:12.675Z,102291.28
2023-02-15T15:46:47.217Z,102295.81
2023-02-15T15:49:19.000Z,102299.56
2023-02-15T15:51:48.413Z,102289.56
2023-02-15T15:54:19.472Z,102295.31
2023-02-15T15:56:52.172Z,102286.88
2023-02-15T15:59:24.905Z,102288.34
2023-02-15T16:01:53.496Z,102280.03
2023-02-15T16:04:28.450Z,102284.25
2023-02-15T16:06:58.407Z,102286.28
2023-02-15T16:09:28.336Z,102283.75
2023-02-15T16:12:06.084Z,102284.47
2023-02-15T16:14:40.556Z,102277.78
2023-02-15T16:17:18.353Z,102284.72
2023-02-15T16:19:47.230Z,102276.56
2023-02-15T16:22:27.724Z,102274.34
2023-02-15T16:25:06.731Z,102270.06
2023-02-15T16:27:42.921Z,102267.69
2023-02-15T16:30:18.771Z,102272.25
2023-02-15T16:32:48.195Z,102277.88
2023-02-15T16:35:18.931Z,102285.28
2023-02-15T16:37:47.808Z,102279.22
2023-02-15T16:40:32.130Z,102277.78
2023-02-15T16:43:09.980Z,102277.88
2023-02-15T16:45:39.713Z,102276.84
2023-02-15T16:48:14.929Z,102277.16
2023-02-15T16:50:50.893Z,102279.47
2023-02-15T16:53:23.668Z,102290.38
2023-02-15T16:55:55.934Z,102291.13
2023-02-15T16:58:31.401Z,102284.28
2023-02-15T17:01:03.749Z,102288.75
2023-02-15T17:03:32.641Z,102281.38
2023-02-15T17:06:03.856Z,102281.44
2023-02-15T17:08:43.379Z,102287.09
2023-02-15T17:11:21.430Z,102286.31
2023-02-15T17:14:04.964Z,102281.16
2023-02-15T17:16:41.591Z,102280.09
2023-02-15T17:19:15.862Z,102285.09
2023-02-15T17:21:50.889Z,102282.56
2023-02-15T17:24:32.910Z,102291.97
2023-02-15T17:27:33.949Z,102291.91
2023-02-15T17:30:15.616Z,102286.75
2023-02-15T17:33:05.224Z,102286.66
2023-02-15T17:35:34.341Z,102291.13
2023-02-15T17:38:20.809Z,102286.03
2023-02-15T17:40:49.331Z,102284.00
2023-02-15T17:43:17.698Z,102282.13
2023-02-15T17:45:51.763Z,102277.31
2023-02-15T17:48:33.071Z,102275.31
2023-02-15T17:51:04.209Z,102285.56
2023-02-15T17:53:33.182Z,102285.72
2023-02-15T17:56:10.273Z,102274.38
2023-02-15T17:58:39.775Z,102280.06
2023-02-15T18:01:36.121Z,102286.59
2023-02-15T18:04:24.145Z,102279.44
2023-02-15T18:07:11.409Z,102273.47
2023-02-15T18:09:58.381Z,102275.78
2023-02-15T18:12:32.044Z,102265.47
2023-02-15T18:15:02.174Z,102271.09
2023-02-15T18:17:35.482Z,102275.19
2023-02-15T18:20:08.162Z,102283.53
2023-02-15T18:22:36.850Z,102276.53
2023-02-15T18:25:05.680Z,102277.44
2023-02-15T18:27:34.241Z,102280.03
2023-02-15T18:30:03.064Z,102287.19
2023-02-15T18:32:36.288Z,102297.66
2023-02-15T18:35:05.295Z,102307.94
2023-02-15T18:37:34.276Z,102303.75
2023-02-15T18:40:04.160Z,102309.34
2023-02-15T18:42:35.212Z,102312.50
2023-02-15T18:45:23.520Z,102309.34
2023-02-15T18:47:52.170Z,102318.66
2023-02-15T18:50:22.445Z,102306.34
2023-02-15T18:52:51.551Z,102297.97
2023-02-15T18:55:26.157Z,102298.25
2023-02-15T18:57:57.362Z,102300.34
2023-02-15T19:00:28.566Z,102300.16
2023-02-15T19:02:57.674Z,102306.06
2023-02-15T19:05:28.224Z,102310.91
2023-02-15T19:07:58.853Z,102319.94
2023-02-15T19:10:30.400Z,102310.38
2023-02-15T19:12:58.868Z,102319.84
2023-02-15T19:15:32.156Z,102315.44
2023-02-15T19:18:00.704Z,102315.13
2023-02-15T19:20:38.712Z,102327.53
2023-02-15T19:23:13.196Z,102314.63
2023-02-15T19:25:42.455Z,102317.13
2023-02-15T19:28:33.155Z,102320.06
2023-02-15T19:31:01.679Z,102322.66
2023-02-15T19:33:30.269Z,102318.16
2023-02-15T19:35:59.203Z,102324.81
2023-02-15T19:38:33.750Z,102314.75
2023-02-15T19:41:08.945Z,102316.19
2023-02-15T19:43:37.413Z,102313.19
2023-02-15T19:46:06.592Z,102319.19
2023-02-15T19:48:35.188Z,102305.25
2023-02-15T19:51:04.521Z,102310.38
2023-02-15T19:53:33.132Z,102315.88
2023-02-15T19:56:01.877Z,102311.34
2023-02-15T19:58:30.679Z,102317.75
2023-02-15T20:00:59.138Z,102312.66
2023-02-15T20:03:27.583Z,102318.72
2023-02-15T20:05:56.015Z,102303.22
2023-02-15T20:08:24.828Z,102308.75
2023-02-15T20:10:53.647Z,102300.56
2023-02-15T20:13:22.077Z,102301.88
2023-02-15T20:15:51.750Z,102307.09
2023-02-15T20:18:22.357Z,102312.06
2023-02-15T20:20:53.452Z,102304.28
2023-02-15T20:23:30.884Z,102315.47
2023-02-15T20:26:06.966Z,102317.56
2023-02-15T20:28:35.431Z,102311.34
2023-02-15T20:31:04.203Z,102315.34
2023-02-15T20:33:33.028Z,102310.66
2023-02-15T20:36:01.525Z,102312.81
2023-02-15T20:38:32.138Z,102310.25
2023-02-15T20:41:19.529Z,102316.63
2023-02-15T20:43:48.466Z,102315.75
2023-02-15T20:46:17.099Z,102303.19
2023-02-15T20:48:45.555Z,102307.72
2023-02-15T20:51:19.349Z,102311.69
2023-02-15T20:53:48.382Z,102303.47
2023-02-15T20:56:21.676Z,102308.28
2023-02-15T20:58:52.667Z,102307.88
2023-02-15T21:01:21.363Z,102309.16
2023-02-15T21:03:49.964Z,102315.81
2023-02-15T21:06:18.637Z,102314.25
2023-02-15T21:08:47.110Z,102309.44
2023-02-15T21:11:23.289Z,102308.88
2023-02-15T21:13:51.849Z,102309.84
2023-02-15T21:16:20.589Z,102307.31
2023-02-15T21:18:49.084Z,102312.41
2023-02-15T21:21:23.465Z,102304.88
2023-02-15T21:23:52.882Z,102296.25
2023-02-15T21:26:22.644Z,102304.34
2023-02-15T21:28:51.165Z,102306.00
2023-02-15T21:31:22.956Z,102306.84
2023-02-15T21:33:51.834Z,102306.66
2023-02-15T21:36:25.226Z,102290.34
2023-02-15T21:38:53.847Z,102285.66
2023-02-15T21:41:43.137Z,102288.97
2023-02-15T21:44:36.614Z,102290.97
2023-02-15T21:47:23.802Z,102284.16
2023-02-15T21:49:52.942Z,102285.44
2023-02-15T21:52:23.548Z,102284.28
2023-02-15T21:54:51.899Z,102270.28
2023-02-15T21:57:22.261Z,102283.72
2023-02-15T21:59:50.883Z,102287.41
2023-02-15T22:02:28.931Z,102283.88
2023-02-15T22:04:58.961Z,102285.53
2023-02-15T22:07:27.391Z,102291.88
2023-02-15T22:09:55.794Z,102289.47
2023-02-15T22:12:24.244Z,102290.91
2023-02-15T22:14:54.026Z,102286.91
2023-02-15T22:17:24.978Z,102286.88
2023-02-15T22:19:53.473Z,102290.13
2023-02-15T22:22:21.961Z,102303.63
2023-02-15T22:24:50.462Z,102301.06
2023-02-15T22:27:27.969Z,102292.69
2023-02-15T22:29:56.500Z,102292.53
2023-02-15T22:32:26.742Z,102283.78
2023-02-15T22:34:55.269Z,102290.22
2023-02-15T22:37:23.695Z,102287.97
2023-02-15T22:39:52.184Z,102290.59
2023-02-15T22:42:26.251Z,102295.44
2023-02-15T22:44:56.069Z,102291.28
2023-02-15T22:47:27.506Z,102291.53
2023-02-15T22:49:55.950Z,102295.09
2023-02-15T22:52:24.566Z,102286.72
2023-02-15T22:54:53.000Z,102287.56
2023-02-15T22:57:32.478Z,102279.31
2023-02-15T23:00:01.271Z,102286.41
2023-02-15T23:02:29.740Z,102275.91
2023-02-15T23:04:58.150Z,102282.44
2023-02-15T23:07:28.131Z,102290.13
2023-02-15T23:09:56.594Z,102286.13
2023-02-15T23:12:50.061Z,102290.25
2023-02-15T23:15:18.658Z,102293.19
2023-02-15T23:17:47.031Z,102293.94
2023-02-15T23:20:15.807Z,102289.09
2023-02-15T23:22:44.394Z,102291.53
2023-02-15T23:25:12.959Z,102296.28
2023-02-15T23:27:59.773Z,102296.00
2023-02-15T23:30:28.324Z,102297.84
2023-02-15T23:32:58.062Z,102300.50
2023-02-15T23:35:26.614Z,102295.56
2023-02-15T23:37:55.030Z,102298.31
2023-02-15T23:40:42.048Z,102293.88
2023-02-15T23:43:22.854Z,102294.19
2023-02-15T23:45:51.352Z,102288.56
2023-02-15T23:48:30.206Z,102283.34
2023-02-15T23:50:59.634Z,102281.09
2023-02-15T23:53:28.250Z,102278.00
2023-02-15T23:55:57.791Z,102274.91
2023-02-15T23:58:34.496Z,102274.78
